sensor_id;sensor_type;location;lat;lon;timestamp;pressure;altitude;pressure_sealevel;temperature;humidity
8051;BME280;4068;42.158;24.732;2023-02-11T00:01:10;101617.22;;;-6.93;100.00
8051;BME280;4068;42.158;24.732;2023-02-11T00:03:36;101612.19;;;-6.88;100.00
8051;BME280;4068;42.158;24.732;2023-02-11T00:06:06;101606.88;;;-6.95;100.00
8051;BME280;4068;42.158;24.732;2023-02-11T00:08:34;101615.31;;;-7.02;100.00
8051;BME280;4068;42.158;24.732;2023-02-11T00:11:00;101617.72;;;-7.09;100.00
8051;BME280;4068;42.158;24.732;2023-02-11T00:13:25;101622.69;;;-7.16;100.00
8051;BME280;4068;42.158;24.732;2023-02-11T00:15:52;101627.19;;;-7.07;100.00
8051;BME280;4068;42.158;24.732;2023-02-11T00:18:17;101592.47;;;-7.21;100.00
8051;BME280;4068;42.158;24.732;2023-02-11T00:20:43;101621.47;;;-6.97;100.00
8051;BME280;4068;42.158;24.732;2023-02-11T00:23:09;101620.50;;;-7.00;100.00
8051;BME280;4068;42.158;24.732;2023-02-11T00:25:39;101626.66;;;-6.95;100.00
8051;BME280;4068;42.158;24.732;2023-02-11T00:28:05;101611.31;;;-6.89;100.00
8051;BME280;4068;42.158;24.732;2023-02-11T00:30:30;101580.81;;;-7.05;100.00
8051;BME280;4068;42.158;24.732;2023-02-11T00:32:56;101599.19;;;-6.93;100.00
8051;BME280;4068;42.158;24.732;2023-02-11T00:35:22;101611.28;;;-6.90;100.00
8051;BME280;4068;42.158;24.732;2023-02-11T00:37:47;101611.22;;;-6.94;100.00
8051;BME280;4068;42.158;24.732;2023-02-11T00:40:13;101608.59;;;-6.95;100.00
8051;BME280;4068;42.158;24.732;2023-02-11T00:42:41;101581.28;;;-7.22;100.00
8051;BME280;4068;42.158;24.732;2023-02-11T00:45:06;101624.94;;;-6.95;100.00
8051;BME280;4068;42.158;24.732;2023-02-11T00:47:34;101605.75;;;-7.06;100.00
8051;BME280;4068;42.158;24.732;2023-02-11T00:50:00;101577.91;;;-7.19;100.00
8051;BME280;4068;42.158;24.732;2023-02-11T00:52:26;101609.31;;;-7.01;100.00
8051;BME280;4068;42.158;24.732;2023-02-11T00:54:51;101611.97;;;-6.98;100.00
8051;BME280;4068;42.158;24.732;2023-02-11T00:57:17;101619.59;;;-7.02;100.00
8051;BME280;4068;42.158;24.732;2023-02-11T00:59:42;101611.88;;;-7.02;100.00
8051;BME280;4068;42.158;24.732;2023-02-11T01:02:08;101597.41;;;-6.94;100.00
8051;BME280;4068;42.158;24.732;2023-02-11T01:04:33;101566.16;;;-7.08;100.00
8051;BME280;4068;42.158;24.732;2023-02-11T01:06:59;101609.59;;;-6.88;100.00
8051;BME280;4068;42.158;24.732;2023-02-11T01:09:24;101599.22;;;-6.91;100.00
8051;BME280;4068;42.158;24.732;2023-02-11T01:11:50;101589.56;;;-6.99;100.00
8051;BME280;4068;42.158;24.732;2023-02-11T01:14:15;101598.25;;;-6.97;100.00
8051;BME280;4068;42.158;24.732;2023-02-11T01:16:41;101596.28;;;-7.05;100.00
8051;BME280;4068;42.158;24.732;2023-02-11T01:19:06;101598.03;;;-7.04;100.00
8051;BME280;4068;42.158;24.732;2023-02-11T01:21:32;101587.72;;;-7.04;100.00
8051;BME280;4068;42.158;24.732;2023-02-11T01:23:58;101583.31;;;-7.08;100.00
8051;BME280;4068;42.158;24.732;2023-02-11T01:26:23;101593.63;;;-7.08;100.00
8051;BME280;4068;42.158;24.732;2023-02-11T01:28:48;101585.81;;;-7.12;100.00
8051;BME280;4068;42.158;24.732;2023-02-11T01:31:14;101584.19;;;-7.09;100.00
8051;BME280;4068;42.158;24.732;2023-02-11T01:33:39;101547.72;;;-7.23;100.00
8051;BME280;4068;42.158;24.732;2023-02-11T01:36:06;101582.66;;;-7.00;100.00
8051;BME280;4068;42.158;24.732;2023-02-11T01:38:32;101559.06;;;-7.17;100.00
8051;BME280;4068;42.158;24.732;2023-02-11T01:41:01;101570.63;;;-7.01;100.00
8051;BME280;4068;42.158;24.732;2023-02-11T01:43:30;101567.13;;;-7.03;100.00
8051;BME280;4068;42.158;24.732;2023-02-11T01:49:17;101565.00;;;-7.19;100.00
8051;BME280;4068;42.158;24.732;2023-02-11T01:51:55;101561.47;;;-7.23;100.00
8051;BME280;4068;42.158;24.732;2023-02-11T01:54:25;101565.84;;;-7.20;100.00
8051;BME280;4068;42.158;24.732;2023-02-11T01:57:10;101557.56;;;-7.07;100.00
8051;BME280;4068;42.158;24.732;2023-02-11T02:00:00;101562.50;;;-7.16;100.00
8051;BME280;4068;42.158;24.732;2023-02-11T02:03:22;101562.50;;;-7.16;100.00
8051;BME280;4068;42.158;24.732;2023-02-11T02:10:35;101555.41;;;-7.25;100.00
8051;BME280;4068;42.158;24.732;2023-02-11T02:13:02;101548.53;;;-7.24;100.00
8051;BME280;4068;42.158;24.732;2023-02-11T02:15:34;101544.34;;;-7.21;100.00
8051;BME280;4068;42.158;24.732;2023-02-11T02:27:00;101552.81;;;-7.26;100.00
8051;BME280;4068;42.158;24.732;2023-02-11T02:37:49;101559.78;;;-7.22;100.00
8051;BME280;4068;42.158;24.732;2023-02-11T02:40:22;101545.81;;;-7.31;100.00
8051;BME280;4068;42.158;24.732;2023-02-11T02:42:48;101546.53;;;-7.36;100.00
8051;BME280;4068;42.158;24.732;2023-02-11T02:45:15;101535.09;;;-7.48;100.00
8051;BME280;4068;42.158;24.732;2023-02-11T02:47:41;101577.63;;;-7.30;100.00
8051;BME280;4068;42.158;24.732;2023-02-11T02:50:07;101569.72;;;-7.38;100.00
8051;BME280;4068;42.158;24.732;2023-02-11T02:55:56;101565.88;;;-7.54;100.00
8051;BME280;4068;42.158;24.732;2023-02-11T03:04:08;101572.97;;;-7.45;100.00
8051;BME280;4068;42.158;24.732;2023-02-11T03:06:40;101571.19;;;-7.48;100.00
8051;BME280;4068;42.158;24.732;2023-02-11T03:12:01;101543.44;;;-7.58;100.00
8051;BME280;4068;42.158;24.732;2023-02-11T03:14:29;101574.56;;;-7.49;100.00
8051;BME280;4068;42.158;24.732;2023-02-11T03:16:57;101541.47;;;-7.67;100.00
8051;BME280;4068;42.158;24.732;2023-02-11T03:19:34;101577.13;;;-7.50;100.00
8051;BME280;4068;42.158;24.732;2023-02-11T03:22:05;101565.81;;;-7.55;100.00
8051;BME280;4068;42.158;24.732;2023-02-11T03:24:36;101569.25;;;-7.56;100.00
8051;BME280;4068;42.158;24.732;2023-02-11T03:27:40;101572.59;;;-7.59;100.00
8051;BME280;4068;42.158;24.732;2023-02-11T03:32:47;101581.13;;;-7.61;100.00
8051;BME280;4068;42.158;24.732;2023-02-11T03:35:37;101563.91;;;-7.63;100.00
8051;BME280;4068;42.158;24.732;2023-02-11T03:38:06;101583.69;;;-7.61;100.00
8051;BME280;4068;42.158;24.732;2023-02-11T03:40:38;101584.66;;;-7.58;100.00
8051;BME280;4068;42.158;24.732;2023-02-11T03:43:09;101579.66;;;-7.52;100.00
8051;BME280;4068;42.158;24.732;2023-02-11T03:45:37;101577.22;;;-6.76;100.00
8051;BME280;4068;42.158;24.732;2023-02-11T03:48:24;101532.88;;;-6.57;100.00
8051;BME280;4068;42.158;24.732;2023-02-11T03:50:52;101576.69;;;-5.77;100.00
8051;BME280;4068;42.158;24.732;2023-02-11T03:53:20;101562.34;;;-5.59;100.00
8051;BME280;4068;42.158;24.732;2023-02-11T03:55:48;101564.66;;;-5.75;100.00
8051;BME280;4068;42.158;24.732;2023-02-11T03:58:14;101563.41;;;-5.95;100.00
8051;BME280;4068;42.158;24.732;2023-02-11T04:00:42;101554.69;;;-6.02;100.00
8051;BME280;4068;42.158;24.732;2023-02-11T04:03:08;101573.69;;;-6.00;100.00
8051;BME280;4068;42.158;24.732;2023-02-11T04:05:35;101534.81;;;-6.04;100.00
8051;BME280;4068;42.158;24.732;2023-02-11T04:08:00;101577.56;;;-5.75;100.00
8051;BME280;4068;42.158;24.732;2023-02-11T04:10:26;101561.34;;;-5.67;100.00
8051;BME280;4068;42.158;24.732;2023-02-11T04:12:51;101574.06;;;-5.78;100.00
8051;BME280;4068;42.158;24.732;2023-02-11T04:15:17;101544.97;;;-6.15;100.00
8051;BME280;4068;42.158;24.732;2023-02-11T04:17:42;101581.47;;;-5.97;100.00
8051;BME280;4068;42.158;24.732;2023-02-11T04:20:09;101574.44;;;-5.58;100.00
8051;BME280;4068;42.158;24.732;2023-02-11T04:22:35;101573.75;;;-5.95;100.00
8051;BME280;4068;42.158;24.732;2023-02-11T04:25:01;101563.13;;;-6.11;100.00
8051;BME280;4068;42.158;24.732;2023-02-11T04:27:28;101566.03;;;-6.36;100.00
8051;BME280;4068;42.158;24.732;2023-02-11T04:29:53;101564.78;;;-6.55;100.00
8051;BME280;4068;42.158;24.732;2023-02-11T04:32:18;101569.66;;;-6.68;100.00
8051;BME280;4068;42.158;24.732;2023-02-11T04:34:44;101537.25;;;-6.93;100.00
8051;BME280;4068;42.158;24.732;2023-02-11T04:37:09;101568.72;;;-6.71;100.00
8051;BME280;4068;42.158;24.732;2023-02-11T04:39:35;101565.97;;;-6.79;100.00
8051;BME280;4068;42.158;24.732;2023-02-11T04:42:00;101522.31;;;-6.68;100.00
8051;BME280;4068;42.158;24.732;2023-02-11T04:44:26;101556.13;;;-6.57;100.00
8051;BME280;4068;42.158;24.732;2023-02-11T04:46:51;101549.22;;;-6.57;100.00
8051;BME280;4068;42.158;24.732;2023-02-11T04:49:17;101550.56;;;-6.74;100.00
8051;BME280;4068;42.158;24.732;2023-02-11T04:51:42;101548.47;;;-6.92;100.00
8051;BME280;4068;42.158;24.732;2023-02-11T04:54:09;101547.78;;;-7.20;100.00
8051;BME280;4068;42.158;24.732;2023-02-11T04:56:35;101550.22;;;-7.26;100.00
8051;BME280;4068;42.158;24.732;2023-02-11T04:59:01;101545.78;;;-7.32;100.00
8051;BME280;4068;42.158;24.732;2023-02-11T05:01:26;101555.09;;;-7.37;100.00
8051;BME280;4068;42.158;24.732;2023-02-11T05:03:52;101561.66;;;-7.50;100.00
8051;BME280;4068;42.158;24.732;2023-02-11T05:06:17;101540.66;;;-7.64;100.00
8051;BME280;4068;42.158;24.732;2023-02-11T05:08:43;101557.28;;;-7.53;100.00
8051;BME280;4068;42.158;24.732;2023-02-11T05:11:15;101557.28;;;-7.53;100.00
8051;BME280;4068;42.158;24.732;2023-02-11T05:13:42;101557.28;;;-7.53;100.00
8051;BME280;4068;42.158;24.732;2023-02-11T05:16:07;101546.69;;;-7.65;100.00
8051;BME280;4068;42.158;24.732;2023-02-11T05:18:33;101541.31;;;-7.73;100.00
8051;BME280;4068;42.158;24.732;2023-02-11T05:21:05;101523.75;;;-7.88;100.00
8051;BME280;4068;42.158;24.732;2023-02-11T05:23:31;101555.00;;;-7.74;100.00
8051;BME280;4068;42.158;24.732;2023-02-11T05:25:58;101540.97;;;-7.85;100.00
8051;BME280;4068;42.158;24.732;2023-02-11T05:28:23;101555.94;;;-7.72;100.00
8051;BME280;4068;42.158;24.732;2023-02-11T05:30:49;101558.41;;;-7.76;100.00
8051;BME280;4068;42.158;24.732;2023-02-11T05:33:14;101550.38;;;-7.87;100.00
8051;BME280;4068;42.158;24.732;2023-02-11T05:35:40;101579.69;;;-7.84;100.00
8051;BME280;4068;42.158;24.732;2023-02-11T05:38:05;101577.03;;;-7.85;100.00
8051;BME280;4068;42.158;24.732;2023-02-11T05:40:30;101554.19;;;-8.05;100.00
8051;BME280;4068;42.158;24.732;2023-02-11T05:42:56;101563.91;;;-7.94;100.00
8051;BME280;4068;42.158;24.732;2023-02-11T05:45:21;101570.09;;;-7.89;100.00
8051;BME280;4068;42.158;24.732;2023-02-11T05:47:47;101566.56;;;-7.91;100.00
8051;BME280;4068;42.158;24.732;2023-02-11T05:50:12;101566.03;;;-7.80;100.00
8051;BME280;4068;42.158;24.732;2023-02-11T05:52:38;101553.00;;;-7.86;100.00
8051;BME280;4068;42.158;24.732;2023-02-11T05:55:03;101561.34;;;-7.94;100.00
8051;BME280;4068;42.158;24.732;2023-02-11T05:57:29;101565.78;;;-7.89;100.00
8051;BME280;4068;42.158;24.732;2023-02-11T05:59:54;101583.53;;;-7.68;100.00
8051;BME280;4068;42.158;24.732;2023-02-11T06:02:20;101567.00;;;-7.76;100.00
8051;BME280;4068;42.158;24.732;2023-02-11T06:04:45;101582.53;;;-7.73;100.00
8051;BME280;4068;42.158;24.732;2023-02-11T06:07:11;101577.69;;;-7.62;100.00
8051;BME280;4068;42.158;24.732;2023-02-11T06:09:36;101572.38;;;-7.35;100.00
8051;BME280;4068;42.158;24.732;2023-02-11T06:12:02;101562.19;;;-7.29;100.00
8051;BME280;4068;42.158;24.732;2023-02-11T06:14:27;101529.22;;;-7.42;100.00
8051;BME280;4068;42.158;24.732;2023-02-11T06:16:53;101556.50;;;-7.17;100.00
8051;BME280;4068;42.158;24.732;2023-02-11T06:19:18;101576.19;;;-7.19;100.00
8051;BME280;4068;42.158;24.732;2023-02-11T06:21:44;101577.34;;;-7.07;100.00
8051;BME280;4068;42.158;24.732;2023-02-11T06:24:09;101564.56;;;-7.01;100.00
8051;BME280;4068;42.158;24.732;2023-02-11T06:26:34;101560.22;;;-7.04;100.00
8051;BME280;4068;42.158;24.732;2023-02-11T06:29:00;101569.44;;;-6.77;100.00
8051;BME280;4068;42.158;24.732;2023-02-11T06:31:26;101567.72;;;-6.78;100.00
8051;BME280;4068;42.158;24.732;2023-02-11T06:33:51;101567.19;;;-6.63;100.00
8051;BME280;4068;42.158;24.732;2023-02-11T06:36:20;101542.88;;;-6.73;100.00
8051;BME280;4068;42.158;24.732;2023-02-11T06:38:46;101574.50;;;-6.44;100.00
8051;BME280;4068;42.158;24.732;2023-02-11T06:41:14;101556.41;;;-6.45;100.00
8051;BME280;4068;42.158;24.732;2023-02-11T06:43:40;101583.84;;;-6.08;100.00
8051;BME280;4068;42.158;24.732;2023-02-11T06:46:06;101581.72;;;-5.83;100.00
8051;BME280;4068;42.158;24.732;2023-02-11T06:48:31;101583.00;;;-5.61;100.00
8051;BME280;4068;42.158;24.732;2023-02-11T06:51:01;101555.44;;;-5.60;100.00
8051;BME280;4068;42.158;24.732;2023-02-11T06:53:28;101574.09;;;-5.29;100.00
8051;BME280;4068;42.158;24.732;2023-02-11T06:55:53;101566.50;;;-5.20;100.00
8051;BME280;4068;42.158;24.732;2023-02-11T06:58:18;101504.06;;;-5.40;99.32
8051;BME280;4068;42.158;24.732;2023-02-11T07:00:44;101565.16;;;-4.93;98.75
8051;BME280;4068;42.158;24.732;2023-02-11T07:03:09;101561.19;;;-4.73;96.68
8051;BME280;4068;42.158;24.732;2023-02-11T07:05:35;101565.41;;;-4.78;95.17
8051;BME280;4068;42.158;24.732;2023-02-11T07:08:03;101558.72;;;-4.63;93.20
8051;BME280;4068;42.158;24.732;2023-02-11T07:10:28;101522.22;;;-4.80;92.90
8051;BME280;4068;42.158;24.732;2023-02-11T07:12:54;101535.44;;;-4.60;92.68
8051;BME280;4068;42.158;24.732;2023-02-11T07:15:19;101555.53;;;-4.45;91.63
8051;BME280;4068;42.158;24.732;2023-02-11T07:17:44;101558.06;;;-4.50;90.44
8051;BME280;4068;42.158;24.732;2023-02-11T07:20:10;101564.50;;;-4.20;90.49
8051;BME280;4068;42.158;24.732;2023-02-11T07:22:38;101557.59;;;-4.17;90.32
8051;BME280;4068;42.158;24.732;2023-02-11T07:25:04;101550.66;;;-4.19;90.33
8051;BME280;4068;42.158;24.732;2023-02-11T07:27:30;101559.59;;;-3.95;90.28
8051;BME280;4068;42.158;24.732;2023-02-11T07:29:55;101552.88;;;-3.78;88.67
8051;BME280;4068;42.158;24.732;2023-02-11T07:32:20;101533.13;;;-3.65;88.16
8051;BME280;4068;42.158;24.732;2023-02-11T07:34:46;101544.41;;;-3.61;86.69
8051;BME280;4068;42.158;24.732;2023-02-11T07:37:12;101549.78;;;-3.41;87.14
8051;BME280;4068;42.158;24.732;2023-02-11T07:39:38;101549.97;;;-3.18;87.18
8051;BME280;4068;42.158;24.732;2023-02-11T07:42:03;101535.47;;;-2.91;85.64
8051;BME280;4068;42.158;24.732;2023-02-11T07:44:29;101531.28;;;-2.69;83.25
8051;BME280;4068;42.158;24.732;2023-02-11T07:46:54;101507.00;;;-2.76;82.37
8051;BME280;4068;42.158;24.732;2023-02-11T07:49:20;101542.69;;;-2.39;82.62
8051;BME280;4068;42.158;24.732;2023-02-11T07:51:45;101540.16;;;-2.26;81.56
8051;BME280;4068;42.158;24.732;2023-02-11T07:54:12;101541.97;;;-2.04;81.39
8051;BME280;4068;42.158;24.732;2023-02-11T07:56:37;101500.38;;;-2.04;80.35
8051;BME280;4068;42.158;24.732;2023-02-11T07:59:03;101542.09;;;-1.66;80.28
8051;BME280;4068;42.158;24.732;2023-02-11T08:01:29;101537.78;;;-1.51;79.78
8051;BME280;4068;42.158;24.732;2023-02-11T08:03:56;101535.22;;;-1.27;78.35
8051;BME280;4068;42.158;24.732;2023-02-11T08:06:23;101501.38;;;-1.28;78.03
8051;BME280;4068;42.158;24.732;2023-02-11T08:08:49;101533.44;;;-0.86;76.71
8051;BME280;4068;42.158;24.732;2023-02-11T08:11:21;101527.31;;;-0.62;74.95
8051;BME280;4068;42.158;24.732;2023-02-11T08:13:47;101534.25;;;-0.48;73.79
8051;BME280;4068;42.158;24.732;2023-02-11T08:18:49;101527.16;;;-0.15;72.31
8051;BME280;4068;42.158;24.732;2023-02-11T08:21:15;101530.59;;;-0.12;72.50
8051;BME280;4068;42.158;24.732;2023-02-11T08:23:42;101512.28;;;0.02;71.94
8051;BME280;4068;42.158;24.732;2023-02-11T08:26:11;101505.25;;;0.13;72.76
8051;BME280;4068;42.158;24.732;2023-02-11T08:28:38;101510.41;;;0.21;70.94
8051;BME280;4068;42.158;24.732;2023-02-11T08:31:07;101506.88;;;0.33;71.37
8051;BME280;4068;42.158;24.732;2023-02-11T08:33:33;101505.03;;;0.47;71.24
8051;BME280;4068;42.158;24.732;2023-02-11T08:35:59;101499.72;;;0.63;70.84
8051;BME280;4068;42.158;24.732;2023-02-11T08:38:25;101496.00;;;0.85;70.46
8051;BME280;4068;42.158;24.732;2023-02-11T08:40:50;101498.53;;;0.98;69.22
8051;BME280;4068;42.158;24.732;2023-02-11T08:43:15;101496.69;;;1.06;67.51
8051;BME280;4068;42.158;24.732;2023-02-11T08:45:41;101468.91;;;0.99;68.36
8051;BME280;4068;42.158;24.732;2023-02-11T08:48:06;101463.50;;;1.16;67.47
8051;BME280;4068;42.158;24.732;2023-02-11T08:50:32;101484.03;;;1.50;67.47
8051;BME280;4068;42.158;24.732;2023-02-11T08:52:57;101491.84;;;1.53;65.20
8051;BME280;4068;42.158;24.732;2023-02-11T08:55:22;101496.94;;;1.64;65.27
8051;BME280;4068;42.158;24.732;2023-02-11T08:57:48;101481.19;;;1.70;64.54
8051;BME280;4068;42.158;24.732;2023-02-11T09:00:14;101481.81;;;1.87;64.61
8051;BME280;4068;42.158;24.732;2023-02-11T09:02:40;101475.63;;;1.93;63.70
8051;BME280;4068;42.158;24.732;2023-02-11T09:05:06;101484.34;;;1.94;61.45
8051;BME280;4068;42.158;24.732;2023-02-11T09:07:32;101470.31;;;1.98;61.28
8051;BME280;4068;42.158;24.732;2023-02-11T09:09:57;101470.13;;;2.12;60.69
8051;BME280;4068;42.158;24.732;2023-02-11T09:12:22;101474.38;;;2.20;60.13
8051;BME280;4068;42.158;24.732;2023-02-11T09:14:48;101466.25;;;2.37;58.81
8051;BME280;4068;42.158;24.732;2023-02-11T09:17:13;101436.66;;;2.32;58.12
8051;BME280;4068;42.158;24.732;2023-02-11T09:19:39;101478.09;;;2.62;58.20
8051;BME280;4068;42.158;24.732;2023-02-11T09:22:04;101461.38;;;2.69;58.11
8051;BME280;4068;42.158;24.732;2023-02-11T09:24:29;101470.78;;;2.82;57.49
8051;BME280;4068;42.158;24.732;2023-02-11T09:26:55;101465.44;;;2.87;56.98
8051;BME280;4068;42.158;24.732;2023-02-11T09:29:20;101455.75;;;2.90;57.34
8051;BME280;4068;42.158;24.732;2023-02-11T09:31:46;101451.22;;;3.00;57.70
8051;BME280;4068;42.158;24.732;2023-02-11T09:34:11;101455.44;;;3.07;57.01
8051;BME280;4068;42.158;24.732;2023-02-11T09:36:38;101429.34;;;3.01;54.84
8051;BME280;4068;42.158;24.732;2023-02-11T09:39:07;101456.03;;;3.22;53.65
8051;BME280;4068;42.158;24.732;2023-02-11T09:44:26;101437.31;;;3.40;53.50
8051;BME280;4068;42.158;24.732;2023-02-11T09:46:55;101437.91;;;3.53;53.56
8051;BME280;4068;42.158;24.732;2023-02-11T09:49:29;101434.13;;;3.68;52.56
8051;BME280;4068;42.158;24.732;2023-02-11T09:52:02;101417.38;;;3.74;52.48
8051;BME280;4068;42.158;24.732;2023-02-11T09:54:36;101413.53;;;3.89;52.79
8051;BME280;4068;42.158;24.732;2023-02-11T09:57:03;101410.25;;;3.80;52.43
8051;BME280;4068;42.158;24.732;2023-02-11T09:59:30;101408.19;;;3.93;51.79
8051;BME280;4068;42.158;24.732;2023-02-11T10:02:03;101392.38;;;3.96;51.51
8051;BME280;4068;42.158;24.732;2023-02-11T10:07:35;101379.97;;;4.02;51.64
8051;BME280;4068;42.158;24.732;2023-02-11T10:13:38;101370.97;;;4.13;50.95
8051;BME280;4068;42.158;24.732;2023-02-11T10:25:36;101350.66;;;4.55;48.35
8051;BME280;4068;42.158;24.732;2023-02-11T10:28:22;101338.31;;;4.57;48.41
8051;BME280;4068;42.158;24.732;2023-02-11T10:34:15;101321.97;;;4.78;49.33
8051;BME280;4068;42.158;24.732;2023-02-11T10:36:42;101283.78;;;4.65;49.00
8051;BME280;4068;42.158;24.732;2023-02-11T10:42:04;101301.72;;;4.82;49.52
8051;BME280;4068;42.158;24.732;2023-02-11T10:44:34;101296.88;;;4.98;49.90
8051;BME280;4068;42.158;24.732;2023-02-11T10:47:08;101292.06;;;5.12;47.70
8051;BME280;4068;42.158;24.732;2023-02-11T10:49:43;101289.03;;;4.96;47.75
8051;BME280;4068;42.158;24.732;2023-02-11T10:52:25;101281.50;;;5.14;46.93
8051;BME280;4068;42.158;24.732;2023-02-11T10:57:34;101257.53;;;4.95;46.22
8051;BME280;4068;42.158;24.732;2023-02-11T11:02:54;101252.16;;;5.28;47.00
8051;BME280;4068;42.158;24.732;2023-02-11T11:05:27;101246.31;;;5.18;47.49
8051;BME280;4068;42.158;24.732;2023-02-11T11:08:07;101216.47;;;5.19;47.67
8051;BME280;4068;42.158;24.732;2023-02-11T11:10:39;101207.06;;;5.39;44.53
8051;BME280;4068;42.158;24.732;2023-02-11T11:13:24;101227.94;;;5.72;42.49
8051;BME280;4068;42.158;24.732;2023-02-11T11:18:40;101184.44;;;5.60;41.64
8051;BME280;4068;42.158;24.732;2023-02-11T11:23:58;101203.38;;;5.98;40.58
8051;BME280;4068;42.158;24.732;2023-02-11T11:26:38;101205.53;;;6.12;40.45
8051;BME280;4068;42.158;24.732;2023-02-11T11:29:15;101198.59;;;6.09;39.30
8051;BME280;4068;42.158;24.732;2023-02-11T11:31:50;101194.03;;;6.14;38.61
8051;BME280;4068;42.158;24.732;2023-02-11T11:34:32;101191.94;;;6.22;39.04
8051;BME280;4068;42.158;24.732;2023-02-11T11:37:00;101177.63;;;6.30;38.17
8051;BME280;4068;42.158;24.732;2023-02-11T11:39:34;101173.25;;;6.30;37.75
8051;BME280;4068;42.158;24.732;2023-02-11T11:42:23;101174.72;;;6.14;37.51
8051;BME280;4068;42.158;24.732;2023-02-11T11:44:56;101157.50;;;6.29;37.41
8051;BME280;4068;42.158;24.732;2023-02-11T11:47:58;101151.66;;;6.44;36.84
8051;BME280;4068;42.158;24.732;2023-02-11T11:50:31;101155.34;;;6.62;36.49
8051;BME280;4068;42.158;24.732;2023-02-11T11:53:14;101149.00;;;6.68;35.56
8051;BME280;4068;42.158;24.732;2023-02-11T11:55:44;101136.84;;;6.64;35.17
8051;BME280;4068;42.158;24.732;2023-02-11T11:58:20;101141.66;;;6.76;35.12
8051;BME280;4068;42.158;24.732;2023-02-11T12:00:51;101140.81;;;6.52;34.73
8051;BME280;4068;42.158;24.732;2023-02-11T12:03:40;101137.72;;;6.64;34.15
8051;BME280;4068;42.158;24.732;2023-02-11T12:06:38;101129.69;;;6.67;34.49
8051;BME280;4068;42.158;24.732;2023-02-11T12:20:18;101112.22;;;6.87;33.70
8051;BME280;4068;42.158;24.732;2023-02-11T12:28:05;101093.75;;;6.65;33.06
8051;BME280;4068;42.158;24.732;2023-02-11T12:36:21;101097.91;;;6.93;31.52
8051;BME280;4068;42.158;24.732;2023-02-11T12:39:23;101079.41;;;6.94;31.38
8051;BME280;4068;42.158;24.732;2023-02-11T12:47:58;101087.97;;;6.99;31.54
8051;BME280;4068;42.158;24.732;2023-02-11T12:56:17;101034.09;;;6.62;31.44
8051;BME280;4068;42.158;24.732;2023-02-11T12:58:46;101048.66;;;6.71;31.93
8051;BME280;4068;42.158;24.732;2023-02-11T13:01:21;101068.16;;;6.89;31.37
8051;BME280;4068;42.158;24.732;2023-02-11T13:04:15;101068.97;;;6.69;31.47
8051;BME280;4068;42.158;24.732;2023-02-11T13:06:48;101065.84;;;6.81;30.97
8051;BME280;4068;42.158;24.732;2023-02-11T13:09:29;101065.50;;;6.68;31.20
8051;BME280;4068;42.158;24.732;2023-02-11T13:11:59;101048.88;;;6.66;31.40
8051;BME280;4068;42.158;24.732;2023-02-11T13:14:49;101044.94;;;6.54;31.72
8051;BME280;4068;42.158;24.732;2023-02-11T13:17:23;101052.13;;;6.73;31.28
8051;BME280;4068;42.158;24.732;2023-02-11T13:19:53;101016.97;;;6.72;30.99
8051;BME280;4068;42.158;24.732;2023-02-11T13:22:40;101044.44;;;6.67;31.16
8051;BME280;4068;42.158;24.732;2023-02-11T13:25:33;101042.88;;;6.63;31.78
8051;BME280;4068;42.158;24.732;2023-02-11T13:28:22;101032.84;;;6.71;32.08
8051;BME280;4068;42.158;24.732;2023-02-11T13:30:50;101037.16;;;6.73;32.12
8051;BME280;4068;42.158;24.732;2023-02-11T13:33:34;101005.53;;;6.51;31.10
8051;BME280;4068;42.158;24.732;2023-02-11T13:38:27;101001.25;;;6.49;31.16
8051;BME280;4068;42.158;24.732;2023-02-11T13:41:01;101024.16;;;6.47;31.21
8051;BME280;4068;42.158;24.732;2023-02-11T13:43:28;100977.44;;;6.28;31.33
8051;BME280;4068;42.158;24.732;2023-02-11T13:46:00;101016.25;;;6.47;31.27
8051;BME280;4068;42.158;24.732;2023-02-11T13:48:31;101015.25;;;6.49;31.23
8051;BME280;4068;42.158;24.732;2023-02-11T13:51:06;101007.16;;;6.54;31.59
8051;BME280;4068;42.158;24.732;2023-02-11T13:53:54;101006.38;;;6.52;31.54
8051;BME280;4068;42.158;24.732;2023-02-11T13:56:35;101008.34;;;6.47;31.38
8051;BME280;4068;42.158;24.732;2023-02-11T13:59:42;101006.56;;;6.47;31.49
8051;BME280;4068;42.158;24.732;2023-02-11T14:04:47;100998.66;;;6.47;31.35
8051;BME280;4068;42.158;24.732;2023-02-11T14:10:52;100966.13;;;6.26;30.93
8051;BME280;4068;42.158;24.732;2023-02-11T14:13:25;100994.84;;;6.32;30.95
8051;BME280;4068;42.158;24.732;2023-02-11T14:21:18;100973.28;;;6.22;31.16
8051;BME280;4068;42.158;24.732;2023-02-11T14:23:47;100974.31;;;6.18;31.03
8051;BME280;4068;42.158;24.732;2023-02-11T14:29:05;100960.41;;;6.15;31.21
8051;BME280;4068;42.158;24.732;2023-02-11T14:31:48;100966.97;;;6.27;30.78
8051;BME280;4068;42.158;24.732;2023-02-11T14:40:21;100966.13;;;6.26;30.56
8051;BME280;4068;42.158;24.732;2023-02-11T14:42:50;100960.28;;;6.18;30.95
8051;BME280;4068;42.158;24.732;2023-02-11T14:45:21;100955.16;;;6.15;30.92
8051;BME280;4068;42.158;24.732;2023-02-11T14:48:13;100957.59;;;6.19;31.03
8051;BME280;4068;42.158;24.732;2023-02-11T14:50:40;100964.09;;;6.11;31.13
8051;BME280;4068;42.158;24.732;2023-02-11T14:53:13;100945.44;;;5.93;31.57
8051;BME280;4068;42.158;24.732;2023-02-11T14:55:42;100958.13;;;6.05;31.41
8051;BME280;4068;42.158;24.732;2023-02-11T14:58:23;100956.13;;;5.88;31.60
8051;BME280;4068;42.158;24.732;2023-02-11T15:00:52;100926.22;;;5.67;31.29
8051;BME280;4068;42.158;24.732;2023-02-11T15:03:36;100949.69;;;5.74;31.26
8051;BME280;4068;42.158;24.732;2023-02-11T15:06:33;100946.47;;;5.65;31.90
8051;BME280;4068;42.158;24.732;2023-02-11T15:09:18;100947.84;;;5.52;34.08
8051;BME280;4068;42.158;24.732;2023-02-11T15:11:47;100942.13;;;5.41;35.00
8051;BME280;4068;42.158;24.732;2023-02-11T15:14:39;100933.66;;;5.32;36.02
8051;BME280;4068;42.158;24.732;2023-02-11T15:17:06;100920.91;;;5.22;35.97
8051;BME280;4068;42.158;24.732;2023-02-11T15:19:42;100940.34;;;5.17;36.25
8051;BME280;4068;42.158;24.732;2023-02-11T15:22:18;100912.25;;;4.93;36.62
8051;BME280;4068;42.158;24.732;2023-02-11T15:25:10;100944.63;;;4.95;37.30
8051;BME280;4068;42.158;24.732;2023-02-11T15:27:48;100934.59;;;4.81;37.60
8051;BME280;4068;42.158;24.732;2023-02-11T15:32:45;100945.94;;;4.56;37.71